sensor_id;sensor_type;location;lat;lon;timestamp;temperature;humidity
6538;DHT22;3302;52.508;13.454;2023-01-26T00:01:14;0.40;99.90
6538;DHT22;3302;52.508;13.454;2023-01-26T00:03:41;0.50;99.90
6538;DHT22;3302;52.508;13.454;2023-01-26T00:06:08;0.50;99.90
6538;DHT22;3302;52.508;13.454;2023-01-26T00:08:39;0.40;99.90
6538;DHT22;3302;52.508;13.454;2023-01-26T00:11:06;0.40;99.90
6538;DHT22;3302;52.508;13.454;2023-01-26T00:13:33;0.50;99.90
6538;DHT22;3302;52.508;13.454;2023-01-26T00:15:59;0.50;99.90
6538;DHT22;3302;52.508;13.454;2023-01-26T00:18:25;0.50;99.90
6538;DHT22;3302;52.508;13.454;2023-01-26T00:20:55;0.60;99.90
6538;DHT22;3302;52.508;13.454;2023-01-26T00:23:22;0.40;99.90
6538;DHT22;3302;52.508;13.454;2023-01-26T00:25:47;0.40;99.90
6538;DHT22;3302;52.508;13.454;2023-01-26T00:28:13;0.40;99.90
6538;DHT22;3302;52.508;13.454;2023-01-26T00:30:39;0.40;99.90
6538;DHT22;3302;52.508;13.454;2023-01-26T00:33:05;0.40;99.90
6538;DHT22;3302;52.508;13.454;2023-01-26T00:35:30;0.40;99.90
6538;DHT22;3302;52.508;13.454;2023-01-26T00:37:56;0.30;99.90
6538;DHT22;3302;52.508;13.454;2023-01-26T00:40:22;0.40;99.90
6538;DHT22;3302;52.508;13.454;2023-01-26T00:42:48;0.30;99.90
6538;DHT22;3302;52.508;13.454;2023-01-26T00:45:13;0.30;99.90
6538;DHT22;3302;52.508;13.454;2023-01-26T00:47:39;0.20;99.90
6538;DHT22;3302;52.508;13.454;2023-01-26T00:50:06;0.30;99.90
6538;DHT22;3302;52.508;13.454;2023-01-26T00:52:32;0.40;99.90
6538;DHT22;3302;52.508;13.454;2023-01-26T00:54:57;0.30;99.90
6538;DHT22;3302;52.508;13.454;2023-01-26T00:57:23;0.30;99.90
6538;DHT22;3302;52.508;13.454;2023-01-26T00:59:49;0.30;99.90
6538;DHT22;3302;52.508;13.454;2023-01-26T01:02:15;0.40;99.90
6538;DHT22;3302;52.508;13.454;2023-01-26T01:04:41;0.30;99.90
6538;DHT22;3302;52.508;13.454;2023-01-26T01:07:06;0.30;99.90
6538;DHT22;3302;52.508;13.454;2023-01-26T01:09:32;0.40;99.90
6538;DHT22;3302;52.508;13.454;2023-01-26T01:11:58;0.30;99.90
6538;DHT22;3302;52.508;13.454;2023-01-26T01:14:24;0.30;99.90
6538;DHT22;3302;52.508;13.454;2023-01-26T01:16:50;0.30;99.90
6538;DHT22;3302;52.508;13.454;2023-01-26T01:19:16;0.20;99.90
6538;DHT22;3302;52.508;13.454;2023-01-26T01:21:43;0.30;99.90
6538;DHT22;3302;52.508;13.454;2023-01-26T01:24:10;0.20;99.90
6538;DHT22;3302;52.508;13.454;2023-01-26T01:26:37;0.30;99.90
6538;DHT22;3302;52.508;13.454;2023-01-26T01:29:03;0.20;99.90
6538;DHT22;3302;52.508;13.454;2023-01-26T01:31:29;0.30;99.90
6538;DHT22;3302;52.508;13.454;2023-01-26T01:33:55;0.20;99.90
6538;DHT22;3302;52.508;13.454;2023-01-26T01:36:22;0.20;99.90
6538;DHT22;3302;52.508;13.454;2023-01-26T01:38:48;0.40;99.90
6538;DHT22;3302;52.508;13.454;2023-01-26T01:41:16;0.30;99.90
6538;DHT22;3302;52.508;13.454;2023-01-26T01:43:43;0.30;99.90
6538;DHT22;3302;52.508;13.454;2023-01-26T01:48:59;0.30;99.90
6538;DHT22;3302;52.508;13.454;2023-01-26T01:51:40;0.40;99.90
6538;DHT22;3302;52.508;13.454;2023-01-26T01:54:10;0.30;99.90
6538;DHT22;3302;52.508;13.454;2023-01-26T01:56:41;0.30;99.90
6538;DHT22;3302;52.508;13.454;2023-01-26T01:59:10;0.40;99.90
6538;DHT22;3302;52.508;13.454;2023-01-26T02:01:36;0.40;99.90
6538;DHT22;3302;52.508;13.454;2023-01-26T02:04:04;0.40;99.90
6538;DHT22;3302;52.508;13.454;2023-01-26T02:06:51;0.50;99.90
6538;DHT22;3302;52.508;13.454;2023-01-26T02:09:21;0.50;99.90
6538;DHT22;3302;52.508;13.454;2023-01-26T02:12:29;0.50;99.90
6538;DHT22;3302;52.508;13.454;2023-01-26T02:14:57;0.40;99.90
6538;DHT22;3302;52.508;13.454;2023-01-26T02:17:23;0.30;99.90
6538;DHT22;3302;52.508;13.454;2023-01-26T02:20:10;0.30;99.90
6538;DHT22;3302;52.508;13.454;2023-01-26T02:22:47;0.40;99.90
6538;DHT22;3302;52.508;13.454;2023-01-26T02:28:04;0.40;99.90
6538;DHT22;3302;52.508;13.454;2023-01-26T02:30:30;0.40;99.90
6538;DHT22;3302;52.508;13.454;2023-01-26T02:32:57;0.40;99.90
6538;DHT22;3302;52.508;13.454;2023-01-26T02:35:23;0.40;99.90
6538;DHT22;3302;52.508;13.454;2023-01-26T02:37:49;0.30;99.90
6538;DHT22;3302;52.508;13.454;2023-01-26T02:42:40;0.30;99.90
6538;DHT22;3302;52.508;13.454;2023-01-26T02:45:10;0.30;99.90
6538;DHT22;3302;52.508;13.454;2023-01-26T02:47:37;0.40;99.90
6538;DHT22;3302;52.508;13.454;2023-01-26T02:50:06;0.30;99.90
6538;DHT22;3302;52.508;13.454;2023-01-26T02:52:32;0.40;99.90
6538;DHT22;3302;52.508;13.454;2023-01-26T02:54:58;0.50;99.90
6538;DHT22;3302;52.508;13.454;2023-01-26T02:57:42;0.50;99.90
6538;DHT22;3302;52.508;13.454;2023-01-26T03:00:15;0.40;99.90
6538;DHT22;3302;52.508;13.454;2023-01-26T03:02:42;0.40;99.90
6538;DHT22;3302;52.508;13.454;2023-01-26T03:05:08;0.30;99.90
6538;DHT22;3302;52.508;13.454;2023-01-26T03:07:34;0.30;99.90
6538;DHT22;3302;52.508;13.454;2023-01-26T03:10:00;0.40;99.90
6538;DHT22;3302;52.508;13.454;2023-01-26T03:12:26;0.40;99.90
6538;DHT22;3302;52.508;13.454;2023-01-26T03:14:52;0.30;99.90
6538;DHT22;3302;52.508;13.454;2023-01-26T03:17:40;0.40;99.90
6538;DHT22;3302;52.508;13.454;2023-01-26T03:20:07;0.30;99.90
6538;DHT22;3302;52.508;13.454;2023-01-26T03:22:51;0.40;99.90
6538;DHT22;3302;52.508;13.454;2023-01-26T03:25:36;0.50;99.90
6538;DHT22;3302;52.508;13.454;2023-01-26T03:28:20;0.30;99.90
6538;DHT22;3302;52.508;13.454;2023-01-26T03:30:51;0.50;99.90
6538;DHT22;3302;52.508;13.454;2023-01-26T03:33:19;0.30;99.90
6538;DHT22;3302;52.508;13.454;2023-01-26T03:35:45;0.10;99.90
6538;DHT22;3302;52.508;13.454;2023-01-26T03:38:11;0.00;99.90
6538;DHT22;3302;52.508;13.454;2023-01-26T03:40:38;0.10;99.90
6538;DHT22;3302;52.508;13.454;2023-01-26T03:43:22;0.20;99.90
6538;DHT22;3302;52.508;13.454;2023-01-26T03:46:07;0.20;99.90
6538;DHT22;3302;52.508;13.454;2023-01-26T03:48:51;0.20;99.90
6538;DHT22;3302;52.508;13.454;2023-01-26T03:51:36;0.20;99.90
6538;DHT22;3302;52.508;13.454;2023-01-26T03:54:20;0.30;99.90
6538;DHT22;3302;52.508;13.454;2023-01-26T03:57:05;0.30;99.90
6538;DHT22;3302;52.508;13.454;2023-01-26T03:59:30;0.30;99.90
6538;DHT22;3302;52.508;13.454;2023-01-26T04:02:07;0.20;99.90
6538;DHT22;3302;52.508;13.454;2023-01-26T04:04:52;0.30;99.90
6538;DHT22;3302;52.508;13.454;2023-01-26T04:07:36;0.40;99.90
6538;DHT22;3302;52.508;13.454;2023-01-26T04:10:21;0.20;99.90
6538;DHT22;3302;52.508;13.454;2023-01-26T04:12:48;0.30;99.90
6538;DHT22;3302;52.508;13.454;2023-01-26T04:15:33;0.30;99.90
6538;DHT22;3302;52.508;13.454;2023-01-26T04:18:18;0.30;99.90
6538;DHT22;3302;52.508;13.454;2023-01-26T04:21:04;0.20;99.90
6538;DHT22;3302;52.508;13.454;2023-01-26T04:23:49;0.20;99.90
6538;DHT22;3302;52.508;13.454;2023-01-26T04:26:15;0.30;99.90
6538;DHT22;3302;52.508;13.454;2023-01-26T04:28:41;0.30;99.90
6538;DHT22;3302;52.508;13.454;2023-01-26T04:31:07;0.30;99.90
6538;DHT22;3302;52.508;13.454;2023-01-26T04:33:33;0.30;99.90
6538;DHT22;3302;52.508;13.454;2023-01-26T04:36:06;0.30;99.90
6538;DHT22;3302;52.508;13.454;2023-01-26T04:38:32;0.30;99.90
6538;DHT22;3302;52.508;13.454;2023-01-26T04:40:58;0.30;99.90
6538;DHT22;3302;52.508;13.454;2023-01-26T04:43:24;0.30;99.90
6538;DHT22;3302;52.508;13.454;2023-01-26T04:46:00;0.40;99.90
6538;DHT22;3302;52.508;13.454;2023-01-26T04:48:27;0.40;99.90
6538;DHT22;3302;52.508;13.454;2023-01-26T04:50:59;0.40;99.90
6538;DHT22;3302;52.508;13.454;2023-01-26T04:53:26;0.30;99.90
6538;DHT22;3302;52.508;13.454;2023-01-26T04:55:52;0.30;99.90
6538;DHT22;3302;52.508;13.454;2023-01-26T04:58:18;0.40;99.90
6538;DHT22;3302;52.508;13.454;2023-01-26T05:00:50;0.40;99.90
6538;DHT22;3302;52.508;13.454;2023-01-26T05:03:16;0.30;99.90
6538;DHT22;3302;52.508;13.454;2023-01-26T05:05:41;0.40;99.90
6538;DHT22;3302;52.508;13.454;2023-01-26T05:08:07;0.30;99.90
6538;DHT22;3302;52.508;13.454;2023-01-26T05:10:33;0.30;99.90
6538;DHT22;3302;52.508;13.454;2023-01-26T05:12:59;0.10;99.90
6538;DHT22;3302;52.508;13.454;2023-01-26T05:15:25;0.20;99.90
6538;DHT22;3302;52.508;13.454;2023-01-26T05:17:51;0.20;99.90
6538;DHT22;3302;52.508;13.454;2023-01-26T05:20:17;0.30;99.90
6538;DHT22;3302;52.508;13.454;2023-01-26T05:22:42;0.20;99.90
6538;DHT22;3302;52.508;13.454;2023-01-26T05:25:09;0.20;99.90
6538;DHT22;3302;52.508;13.454;2023-01-26T05:27:35;0.30;99.90
6538;DHT22;3302;52.508;13.454;2023-01-26T05:30:01;0.30;99.90
6538;DHT22;3302;52.508;13.454;2023-01-26T05:32:28;0.30;99.90
6538;DHT22;3302;52.508;13.454;2023-01-26T05:34:54;0.30;99.90
6538;DHT22;3302;52.508;13.454;2023-01-26T05:37:20;0.40;99.90
6538;DHT22;3302;52.508;13.454;2023-01-26T05:39:46;0.40;99.90
6538;DHT22;3302;52.508;13.454;2023-01-26T05:42:12;0.40;99.90
6538;DHT22;3302;52.508;13.454;2023-01-26T05:44:38;0.40;99.90
6538;DHT22;3302;52.508;13.454;2023-01-26T05:47:04;0.50;99.90
6538;DHT22;3302;52.508;13.454;2023-01-26T05:49:30;0.50;99.90
6538;DHT22;3302;52.508;13.454;2023-01-26T05:51:56;0.40;99.90
6538;DHT22;3302;52.508;13.454;2023-01-26T05:54:22;0.40;99.90
6538;DHT22;3302;52.508;13.454;2023-01-26T05:56:47;0.50;99.90
6538;DHT22;3302;52.508;13.454;2023-01-26T05:59:14;0.40;99.90
6538;DHT22;3302;52.508;13.454;2023-01-26T06:01:39;0.40;99.90
6538;DHT22;3302;52.508;13.454;2023-01-26T06:04:05;0.40;99.90
6538;DHT22;3302;52.508;13.454;2023-01-26T06:06:31;0.30;99.90
6538;DHT22;3302;52.508;13.454;2023-01-26T06:08:58;0.40;99.90
6538;DHT22;3302;52.508;13.454;2023-01-26T06:11:24;0.40;99.90
6538;DHT22;3302;52.508;13.454;2023-01-26T06:13:50;0.30;99.90
6538;DHT22;3302;52.508;13.454;2023-01-26T06:16:16;0.30;99.90
6538;DHT22;3302;52.508;13.454;2023-01-26T06:18:41;0.20;99.90
6538;DHT22;3302;52.508;13.454;2023-01-26T06:21:07;0.30;99.90
6538;DHT22;3302;52.508;13.454;2023-01-26T06:23:33;0.20;99.90
6538;DHT22;3302;52.508;13.454;2023-01-26T06:26:00;0.10;99.90
6538;DHT22;3302;52.508;13.454;2023-01-26T06:28:27;0.10;99.90
6538;DHT22;3302;52.508;13.454;2023-01-26T06:31:02;0.10;99.90
6538;DHT22;3302;52.508;13.454;2023-01-26T06:33:29;0.20;99.90
6538;DHT22;3302;52.508;13.454;2023-01-26T06:35:55;0.00;99.90
6538;DHT22;3302;52.508;13.454;2023-01-26T06:38:25;0.20;99.90
6538;DHT22;3302;52.508;13.454;2023-01-26T06:40:51;0.20;99.90
6538;DHT22;3302;52.508;13.454;2023-01-26T06:43:16;0.20;99.90
6538;DHT22;3302;52.508;13.454;2023-01-26T06:45:42;0.20;99.90
6538;DHT22;3302;52.508;13.454;2023-01-26T06:48:08;0.10;99.90
6538;DHT22;3302;52.508;13.454;2023-01-26T06:50:34;0.20;99.90
6538;DHT22;3302;52.508;13.454;2023-01-26T06:53:03;0.20;99.90
6538;DHT22;3302;52.508;13.454;2023-01-26T06:55:45;0.30;99.90
6538;DHT22;3302;52.508;13.454;2023-01-26T06:58:11;0.10;99.90
6538;DHT22;3302;52.508;13.454;2023-01-26T07:00:37;0.10;99.90
6538;DHT22;3302;52.508;13.454;2023-01-26T07:03:04;0.20;99.90
6538;DHT22;3302;52.508;13.454;2023-01-26T07:05:29;0.20;99.90
6538;DHT22;3302;52.508;13.454;2023-01-26T07:07:55;0.20;99.90
6538;DHT22;3302;52.508;13.454;2023-01-26T07:10:21;0.20;99.90
6538;DHT22;3302;52.508;13.454;2023-01-26T07:12:47;0.30;99.90
6538;DHT22;3302;52.508;13.454;2023-01-26T07:15:13;0.20;99.90
6538;DHT22;3302;52.508;13.454;2023-01-26T07:17:39;0.20;99.90
6538;DHT22;3302;52.508;13.454;2023-01-26T07:20:05;0.10;99.90
6538;DHT22;3302;52.508;13.454;2023-01-26T07:22:32;0.10;99.90
6538;DHT22;3302;52.508;13.454;2023-01-26T07:24:57;0.00;99.90
6538;DHT22;3302;52.508;13.454;2023-01-26T07:27:23;0.10;99.90
6538;DHT22;3302;52.508;13.454;2023-01-26T07:29:49;0.20;99.90
6538;DHT22;3302;52.508;13.454;2023-01-26T07:32:16;0.00;99.90
6538;DHT22;3302;52.508;13.454;2023-01-26T07:34:41;0.00;99.90
6538;DHT22;3302;52.508;13.454;2023-01-26T07:37:07;-0.10;99.90
6538;DHT22;3302;52.508;13.454;2023-01-26T07:39:33;-0.10;99.90
6538;DHT22;3302;52.508;13.454;2023-01-26T07:41:59;0.00;99.90
6538;DHT22;3302;52.508;13.454;2023-01-26T07:44:24;0.00;99.90
6538;DHT22;3302;52.508;13.454;2023-01-26T07:46:50;-0.10;99.90
6538;DHT22;3302;52.508;13.454;2023-01-26T07:49:17;-0.10;99.90
6538;DHT22;3302;52.508;13.454;2023-01-26T07:51:43;0.00;99.90
6538;DHT22;3302;52.508;13.454;2023-01-26T07:54:10;-0.20;99.90
6538;DHT22;3302;52.508;13.454;2023-01-26T07:56:37;-0.20;99.90
6538;DHT22;3302;52.508;13.454;2023-01-26T07:59:03;-0.20;99.90
6538;DHT22;3302;52.508;13.454;2023-01-26T08:01:29;-0.10;99.90
6538;DHT22;3302;52.508;13.454;2023-01-26T08:03:55;-0.30;99.90
6538;DHT22;3302;52.508;13.454;2023-01-26T08:06:22;-0.20;99.90
6538;DHT22;3302;52.508;13.454;2023-01-26T08:08:48;-0.20;99.90
6538;DHT22;3302;52.508;13.454;2023-01-26T08:11:19;-0.10;99.90
6538;DHT22;3302;52.508;13.454;2023-01-26T08:13:47;-0.30;99.90
6538;DHT22;3302;52.508;13.454;2023-01-26T08:16:13;-0.20;99.90
6538;DHT22;3302;52.508;13.454;2023-01-26T08:18:43;-0.20;99.90
6538;DHT22;3302;52.508;13.454;2023-01-26T08:21:10;-0.30;99.90
6538;DHT22;3302;52.508;13.454;2023-01-26T08:23:36;-0.30;99.90
6538;DHT22;3302;52.508;13.454;2023-01-26T08:26:04;-0.10;99.90
6538;DHT22;3302;52.508;13.454;2023-01-26T08:28:30;-0.10;99.90
6538;DHT22;3302;52.508;13.454;2023-01-26T08:31:05;0.00;99.90
6538;DHT22;3302;52.508;13.454;2023-01-26T08:33:32;0.00;99.90
6538;DHT22;3302;52.508;13.454;2023-01-26T08:36:06;-0.10;99.90
6538;DHT22;3302;52.508;13.454;2023-01-26T08:38:33;-0.20;99.90
6538;DHT22;3302;52.508;13.454;2023-01-26T08:40:59;0.00;99.90
6538;DHT22;3302;52.508;13.454;2023-01-26T08:43:26;0.00;99.90
6538;DHT22;3302;52.508;13.454;2023-01-26T08:45:52;0.00;99.90
6538;DHT22;3302;52.508;13.454;2023-01-26T08:48:17;-0.10;99.90
6538;DHT22;3302;52.508;13.454;2023-01-26T08:50:44;-0.20;99.90
6538;DHT22;3302;52.508;13.454;2023-01-26T08:53:09;-0.10;99.90
6538;DHT22;3302;52.508;13.454;2023-01-26T08:55:35;-0.10;99.90
6538;DHT22;3302;52.508;13.454;2023-01-26T08:58:01;-0.20;99.90
6538;DHT22;3302;52.508;13.454;2023-01-26T09:00:28;-0.20;99.90
6538;DHT22;3302;52.508;13.454;2023-01-26T09:02:58;-0.30;99.90
6538;DHT22;3302;52.508;13.454;2023-01-26T09:05:25;-0.40;99.90
6538;DHT22;3302;52.508;13.454;2023-01-26T09:07:51;-0.40;99.90
6538;DHT22;3302;52.508;13.454;2023-01-26T09:10:16;-0.30;99.90
6538;DHT22;3302;52.508;13.454;2023-01-26T09:12:42;-0.30;99.90
6538;DHT22;3302;52.508;13.454;2023-01-26T09:15:09;-0.30;99.90
6538;DHT22;3302;52.508;13.454;2023-01-26T09:17:35;-0.30;99.90
6538;DHT22;3302;52.508;13.454;2023-01-26T09:20:03;-0.20;99.90
6538;DHT22;3302;52.508;13.454;2023-01-26T09:22:29;0.00;99.90
6538;DHT22;3302;52.508;13.454;2023-01-26T09:24:55;-0.10;99.90
6538;DHT22;3302;52.508;13.454;2023-01-26T09:27:21;-0.30;99.90
6538;DHT22;3302;52.508;13.454;2023-01-26T09:29:47;-0.20;99.90
6538;DHT22;3302;52.508;13.454;2023-01-26T09:32:13;-0.30;99.90
6538;DHT22;3302;52.508;13.454;2023-01-26T09:34:39;-0.40;99.90
6538;DHT22;3302;52.508;13.454;2023-01-26T09:37:08;-0.20;99.90
6538;DHT22;3302;52.508;13.454;2023-01-26T09:39:33;-0.10;99.90
6538;DHT22;3302;52.508;13.454;2023-01-26T09:44:58;-0.30;99.90
6538;DHT22;3302;52.508;13.454;2023-01-26T09:47:34;-0.30;99.90
6538;DHT22;3302;52.508;13.454;2023-01-26T09:50:01;-0.30;99.90
6538;DHT22;3302;52.508;13.454;2023-01-26T09:52:53;-0.30;99.90
6538;DHT22;3302;52.508;13.454;2023-01-26T09:55:21;-0.30;99.90
6538;DHT22;3302;52.508;13.454;2023-01-26T09:58:05;-0.40;99.90
6538;DHT22;3302;52.508;13.454;2023-01-26T10:00:45;-0.40;99.90
6538;DHT22;3302;52.508;13.454;2023-01-26T10:03:38;-0.30;99.90
6538;DHT22;3302;52.508;13.454;2023-01-26T10:06:10;-0.40;99.90
6538;DHT22;3302;52.508;13.454;2023-01-26T10:08:39;-0.40;99.90
6538;DHT22;3302;52.508;13.454;2023-01-26T10:11:26;-0.30;99.90
6538;DHT22;3302;52.508;13.454;2023-01-26T10:14:01;-0.20;99.90
6538;DHT22;3302;52.508;13.454;2023-01-26T10:16:32;-0.20;99.90
6538;DHT22;3302;52.508;13.454;2023-01-26T10:19:27;-0.10;99.90
6538;DHT22;3302;52.508;13.454;2023-01-26T10:21:59;-0.40;99.90
6538;DHT22;3302;52.508;13.454;2023-01-26T10:24:27;-0.30;99.90
6538;DHT22;3302;52.508;13.454;2023-01-26T10:26:56;-0.40;99.90
6538;DHT22;3302;52.508;13.454;2023-01-26T10:29:22;-0.50;99.90
6538;DHT22;3302;52.508;13.454;2023-01-26T10:31:48;-0.50;99.90
6538;DHT22;3302;52.508;13.454;2023-01-26T10:34:15;-0.30;99.90
6538;DHT22;3302;52.508;13.454;2023-01-26T10:36:44;-0.40;99.90
6538;DHT22;3302;52.508;13.454;2023-01-26T10:39:13;-0.40;99.90
6538;DHT22;3302;52.508;13.454;2023-01-26T10:41:39;-0.40;99.90
6538;DHT22;3302;52.508;13.454;2023-01-26T10:46:41;-0.20;99.90
6538;DHT22;3302;52.508;13.454;2023-01-26T10:51:34;-0.50;99.90
6538;DHT22;3302;52.508;13.454;2023-01-26T10:57:02;-0.30;99.90
6538;DHT22;3302;52.508;13.454;2023-01-26T10:59:32;-0.40;99.90
6538;DHT22;3302;52.508;13.454;2023-01-26T11:12:40;-0.30;99.90
6538;DHT22;3302;52.508;13.454;2023-01-26T11:15:16;-0.30;99.90
6538;DHT22;3302;52.508;13.454;2023-01-26T11:17:50;-0.40;99.90
6538;DHT22;3302;52.508;13.454;2023-01-26T11:29:00;-0.20;99.90
6538;DHT22;3302;52.508;13.454;2023-01-26T11:59:21;-0.20;99.90
6538;DHT22;3302;52.508;13.454;2023-01-26T12:01:57;-0.20;99.90
6538;DHT22;3302;52.508;13.454;2023-01-26T12:04:25;-0.20;99.90
6538;DHT22;3302;52.508;13.454;2023-01-26T12:07:16;-0.20;99.90
6538;DHT22;3302;52.508;13.454;2023-01-26T12:09:46;-0.20;99.90
6538;DHT22;3302;52.508;13.454;2023-01-26T12:22:59;0.10;99.90
6538;DHT22;3302;52.508;13.454;2023-01-26T12:25:35;0.00;99.90
6538;DHT22;3302;52.508;13.454;2023-01-26T12:28:10;-0.10;99.90
6538;DHT22;3302;52.508;13.454;2023-01-26T12:30:54;0.00;99.90
6538;DHT22;3302;52.508;13.454;2023-01-26T12:33:22;0.00;99.90
6538;DHT22;3302;52.508;13.454;2023-01-26T12:41:43;-0.10;99.90
6538;DHT22;3302;52.508;13.454;2023-01-26T12:46:43;0.00;99.90
6538;DHT22;3302;52.508;13.454;2023-01-26T12:49:12;-0.20;99.90
6538;DHT22;3302;52.508;13.454;2023-01-26T12:51:48;-0.20;99.90
6538;DHT22;3302;52.508;13.454;2023-01-26T12:56:51;-0.20;99.90
6538;DHT22;3302;52.508;13.454;2023-01-26T12:59:30;0.00;99.90
6538;DHT22;3302;52.508;13.454;2023-01-26T13:01:57;-0.10;99.90
6538;DHT22;3302;52.508;13.454;2023-01-26T13:04:29;0.00;99.90
6538;DHT22;3302;52.508;13.454;2023-01-26T13:07:03;-0.10;99.90
6538;DHT22;3302;52.508;13.454;2023-01-26T13:18:58;-0.10;99.90
6538;DHT22;3302;52.508;13.454;2023-01-26T13:21:30;-0.10;99.90
6538;DHT22;3302;52.508;13.454;2023-01-26T13:26:51;0.00;99.90
6538;DHT22;3302;52.508;13.454;2023-01-26T13:29:29;0.10;99.90
6538;DHT22;3302;52.508;13.454;2023-01-26T13:31:59;0.10;99.90
6538;DHT22;3302;52.508;13.454;2023-01-26T13:34:46;0.20;99.90
6538;DHT22;3302;52.508;13.454;2023-01-26T13:37:22;0.10;99.90
6538;DHT22;3302;52.508;13.454;2023-01-26T13:40:00;0.10;99.90
6538;DHT22;3302;52.508;13.454;2023-01-26T13:42:40;0.30;99.90
6538;DHT22;3302;52.508;13.454;2023-01-26T13:45:22;0.20;99.90
6538;DHT22;3302;52.508;13.454;2023-01-26T13:47:52;0.00;99.90
6538;DHT22;3302;52.508;13.454;2023-01-26T13:52:54;0.20;99.90
6538;DHT22;3302;52.508;13.454;2023-01-26T13:55:25;0.30;99.90
6538;DHT22;3302;52.508;13.454;2023-01-26T13:58:13;0.10;99.90
6538;DHT22;3302;52.508;13.454;2023-01-26T14:00:39;0.20;99.90
6538;DHT22;3302;52.508;13.454;2023-01-26T14:03:20;0.10;99.90
6538;DHT22;3302;52.508;13.454;2023-01-26T14:06:02;0.00;99.90
6538;DHT22;3302;52.508;13.454;2023-01-26T14:08:30;0.00;99.90
6538;DHT22;3302;52.508;13.454;2023-01-26T14:10:58;-0.20;99.90
6538;DHT22;3302;52.508;13.454;2023-01-26T14:13:34;0.10;99.90
6538;DHT22;3302;52.508;13.454;2023-01-26T14:16:02;0.20;99.90
6538;DHT22;3302;52.508;13.454;2023-01-26T14:18:29;0.30;99.90
6538;DHT22;3302;52.508;13.454;2023-01-26T14:21:03;0.10;99.90
6538;DHT22;3302;52.508;13.454;2023-01-26T14:23:34;0.10;99.90
6538;DHT22;3302;52.508;13.454;2023-01-26T14:26:19;-0.10;99.90
6538;DHT22;3302;52.508;13.454;2023-01-26T14:28:45;-0.10;99.90
6538;DHT22;3302;52.508;13.454;2023-01-26T14:31:20;0.00;99.90
6538;DHT22;3302;52.508;13.454;2023-01-26T14:33:49;0.00;99.90
6538;DHT22;3302;52.508;13.454;2023-01-26T14:36:23;-0.20;99.90
6538;DHT22;3302;52.508;13.454;2023-01-26T14:38:51;0.00;99.90
6538;DHT22;3302;52.508;13.454;2023-01-26T14:41:43;0.10;99.90
6538;DHT22;3302;52.508;13.454;2023-01-26T14:44:09;0.10;99.90
6538;DHT22;3302;52.508;13.454;2023-01-26T14:49:13;0.10;99.90
6538;DHT22;3302;52.508;13.454;2023-01-26T14:51:43;0.00;99.90
6538;DHT22;3302;52.508;13.454;2023-01-26T14:54:28;-0.10;99.90
6538;DHT22;3302;52.508;13.454;2023-01-26T14:56:55;0.10;99.90
6538;DHT22;3302;52.508;13.454;2023-01-26T14:59:34;0.10;99.90
6538;DHT22;3302;52.508;13.454;2023-01-26T15:04:58;0.30;99.90
6538;DHT22;3302;52.508;13.454;2023-01-26T15:07:44;0.20;99.90
6538;DHT22;3302;52.508;13.454;2023-01-26T15:13:20;0.00;99.90
6538;DHT22;3302;52.508;13.454;2023-01-26T15:16:03;0.20;99.90
6538;DHT22;3302;52.508;13.454;2023-01-26T15:18:31;0.20;99.90
6538;DHT22;3302;52.508;13.454;2023-01-26T15:20:58;0.10;99.90
6538;DHT22;3302;52.508;13.454;2023-01-26T15:23:27;0.20;99.90
6538;DHT22;3302;52.508;13.454;2023-01-26T15:25:54;0.30;99.90
6538;DHT22;3302;52.508;13.454;2023-01-26T15:28:23;0.20;99.90
6538;DHT22;3302;52.508;13.454;2023-01-26T15:30:55;0.30;99.90
6538;DHT22;3302;52.508;13.454;2023-01-26T15:36:04;0.10;99.90
6538;DHT22;3302;52.508;13.454;2023-01-26T15:38:30;-0.10;99.90
6538;DHT22;3302;52.508;13.454;2023-01-26T15:40:56;-0.20;99.90
6538;DHT22;3302;52.508;13.454;2023-01-26T15:43:22;-0.20;99.90
6538;DHT22;3302;52.508;13.454;2023-01-26T15:45:55;-0.40;99.90
6538;DHT22;3302;52.508;13.454;2023-01-26T15:48:22;-0.30;99.90
6538;DHT22;3302;52.508;13.454;2023-01-26T15:50:49;-0.20;99.90
6538;DHT22;3302;52.508;13.454;2023-01-26T15:53:17;-0.20;99.90
6538;DHT22;3302;52.508;13.454;2023-01-26T15:55:45;-0.30;99.90
6538;DHT22;3302;52.508;13.454;2023-01-26T15:58:17;-0.30;99.90
6538;DHT22;3302;52.508;13.454;2023-01-26T16:00:44;-0.30;99.90
6538;DHT22;3302;52.508;13.454;2023-01-26T16:03:16;-0.20;99.90
6538;DHT22;3302;52.508;13.454;2023-01-26T16:05:43;-0.30;99.90
6538;DHT22;3302;52.508;13.454;2023-01-26T16:08:12;-0.30;99.90
6538;DHT22;3302;52.508;13.454;2023-01-26T16:10:38;-0.30;99.90
6538;DHT22;3302;52.508;13.454;2023-01-26T16:13:08;-0.10;99.90
6538;DHT22;3302;52.508;13.454;2023-01-26T16:15:41;0.00;99.90
6538;DHT22;3302;52.508;13.454;2023-01-26T16:18:08;-0.20;99.90
6538;DHT22;3302;52.508;13.454;2023-01-26T16:20:37;-0.20;99.90
6538;DHT22;3302;52.508;13.454;2023-01-26T16:23:10;-0.30;99.90
6538;DHT22;3302;52.508;13.454;2023-01-26T16:25:40;-0.30;99.90
6538;DHT22;3302;52.508;13.454;2023-01-26T16:28:06;-0.30;99.90
6538;DHT22;3302;52.508;13.454;2023-01-26T16:30:32;-0.20;99.90
6538;DHT22;3302;52.508;13.454;2023-01-26T16:32:58;-0.20;99.90
6538;DHT22;3302;52.508;13.454;2023-01-26T16:35:25;-0.30;99.90
6538;DHT22;3302;52.508;13.454;2023-01-26T16:37:51;-0.40;99.90
6538;DHT22;3302;52.508;13.454;2023-01-26T16:40:17;-0.40;99.90
6538;DHT22;3302;52.508;13.454;2023-01-26T16:42:47;-0.40;99.90
6538;DHT22;3302;52.508;13.454;2023-01-26T16:45:16;-0.40;99.90
6538;DHT22;3302;52.508;13.454;2023-01-26T16:47:42;-0.30;99.90
6538;DHT22;3302;52.508;13.454;2023-01-26T16:50:10;-0.20;99.90
6538;DHT22;3302;52.508;13.454;2023-01-26T16:52:36;-0.10;99.90
6538;DHT22;3302;52.508;13.454;2023-01-26T16:55:04;-0.30;99.90
6538;DHT22;3302;52.508;13.454;2023-01-26T16:57:30;-0.30;99.90
6538;DHT22;3302;52.508;13.454;2023-01-26T16:59:56;0.00;99.90
6538;DHT22;3302;52.508;13.454;2023-01-26T17:02:25;-0.10;99.90
6538;DHT22;3302;52.508;13.454;2023-01-26T17:04:51;-0.10;99.90
6538;DHT22;3302;52.508;13.454;2023-01-26T17:07:17;-0.10;99.90
6538;DHT22;3302;52.508;13.454;2023-01-26T17:09:43;-0.30;99.90
6538;DHT22;3302;52.508;13.454;2023-01-26T17:12:10;0.00;99.90
6538;DHT22;3302;52.508;13.454;2023-01-26T17:14:36;-0.10;99.90
6538;DHT22;3302;52.508;13.454;2023-01-26T17:17:02;-0.20;99.90
6538;DHT22;3302;52.508;13.454;2023-01-26T17:19:28;-0.30;99.90
6538;DHT22;3302;52.508;13.454;2023-01-26T17:21:54;-0.30;99.90
6538;DHT22;3302;52.508;13.454;2023-01-26T17:24:19;-0.10;99.90
6538;DHT22;3302;52.508;13.454;2023-01-26T17:26:45;-0.20;99.90
6538;DHT22;3302;52.508;13.454;2023-01-26T17:29:11;-0.10;99.90
6538;DHT22;3302;52.508;13.454;2023-01-26T17:31:38;-0.10;99.90
6538;DHT22;3302;52.508;13.454;2023-01-26T17:34:04;0.00;99.90
6538;DHT22;3302;52.508;13.454;2023-01-26T17:36:31;-0.20;99.90
6538;DHT22;3302;52.508;13.454;2023-01-26T17:38:57;-0.10;99.90
6538;DHT22;3302;52.508;13.454;2023-01-26T17:41:22;-0.10;99.90
6538;DHT22;3302;52.508;13.454;2023-01-26T17:43:48;-0.20;99.90
6538;DHT22;3302;52.508;13.454;2023-01-26T17:46:18;-0.20;99.90
6538;DHT22;3302;52.508;13.454;2023-01-26T17:48:45;-0.20;99.90
6538;DHT22;3302;52.508;13.454;2023-01-26T17:51:19;-0.30;99.90
6538;DHT22;3302;52.508;13.454;2023-01-26T17:53:47;-0.20;99.90
6538;DHT22;3302;52.508;13.454;2023-01-26T17:56:16;-0.30;99.90
6538;DHT22;3302;52.508;13.454;2023-01-26T17:58:42;-0.10;99.90
6538;DHT22;3302;52.508;13.454;2023-01-26T18:01:11;-0.20;99.90
6538;DHT22;3302;52.508;13.454;2023-01-26T18:03:41;-0.10;99.90